Nezperce, ID

4:03 PM PST on February 09, 2016 (GMT -0800)
Highland Schools | | Change Station
CLOSE
Current Station
Personal Weather Station
Location: Craigmont, ID
Elevation: 3783 ft
Nearby Weather Stations

Elev 3783 ft 46.24 °N, 116.47 °W | Updated 0 second ago

Clear
Clear
54.0 °F
Feels Like 54.0 °F
N
5.8
Wind Variable Wind from South
Gusts 5.8 mph

Today
High -- | Low -- °F
--% Chance of Precip.
Yesterday
High -- | Low -- °F
Precip. -- in
Pressure 30.28 in
Visibility 10.0 miles
Clouds Clear
Dew Point 36 °F
Humidity 50%
Rainfall 0.00 in
Snow Depth Not available.
6:57 AM 5:01 PM
Waxing Crescent, 3% visible
METAR KGIC 092355Z AUTO 05003KT 10SM CLR 11/04 A3028 RMK AO1
Pressure 30.28 in
Visibility 10.0 miles
Clouds Clear
Dew Point 36 °F
Humidity 50%
Rainfall 0.00 in
Snow Depth Not available.
6:57 AM 5:01 PM
Waxing Crescent, 3% visible
METAR KGIC 092355Z AUTO 05003KT 10SM CLR 11/04 A3028 RMK AO1

10-Day Weather Forecast

Almanac

Astronomy

Feb. 09, 2016 Rise Set
Actual Time
Civil Twilight
Nautical Twilight
Astronomical Twilight
Moon
Length of Visible Light
Length of Day
Tomorrow will be .
, % of the Moon is Illuminated

Today's Extremes

State Highs State Lows

Community

WunderPhotos

Upload Photos

1,891,744 photos uploaded!

WunderBlog® & News

Nearby

Air Quality

  Air Quality AQ Index Pollutant
Not available.

Snow Depth

Station Depth Elevation

Earthquake Activity

City Distance Mag. Time & Date
Minimum magnitude displayed is 2.5.

Coastal Water Temperatures

Place Temperature

Stations

Nearby Weather Stations

Station Location Temp. Windchill Dew Point Humidity Wind Precip. Elev Updated Type
                   

Watches & Warnings

There are currently no watches in effect.